Huvudsida
METAR-TAF:

METAR-TAF

Flygplatser :

Khajuraho Airport

Khajuraho, Indien

latitud: 24-49-02N, longitud: 79-55-07E, höjd: 222 m

Aktuellt väderrapport

Denna rapport gjordes för 9 timmar och 12 minuter sedan, klockan 12:00 UTC
Vind 6 kt från nord/nordväst
Temperatur 41°C
Fuktighet 25%
Tryck 996 hPa
Sikt: 6000 m
Få moln på en höjd av 2500 ft

METAR: VEKO 251200Z 34006KT 6000 FEW025 41/17 Q0996

Tid: 02:42 (21:12 UTC)

Väderprognos

Denna rapport gjordes för 4 timmar och 12 minuter sedan, klockan 17:00 UTC
Prognos gäller från 25 kl. 18 UTC till 26 kl. 03 UTC
Vind 8 kt från nord
Sikt: 6000 m
Få moln på en höjd av 10000 ft
Blir
från 26 kl. 01 UTC till 26 kl. 03 UTC
Vind 8 kt från sydväst
Sikt: 5000 m
torrdis,

TAF: VEKO 251700Z 2518/2603 36008KT 6000 FEW100 BECMG 2601/2603 23008KT 5000 HZ NSC

Aktuella väderrapporter och prognoser från 4000 flygplatser (METAR- och TAF-rapporter).

De tillgängliga stationerna syns som gula och röda prickar på kartan.

För musen över prickarna för att se namnen på stationerna.

Klicka sedan för att få väderrapporter och prognoser.

För att ändra kartan: Klicka på de gröna knapparna med ett svart kors på för att zooma in; den gröna knappen med ett streck på för att zooma ut; eller på de gröna pilarna för angränsande kartor.


METAR-TAF: